Skip Navigation LinksHome page > Tools > METAR decoder Skip Navigation Links

METAR decoder

Settings

METAR

Chicago O'Hare Intl, Chicago

For information only: do not use for flight planning or navigation.
Latest weather
Observation time Tuesday, April 20, 2021 5:51 PM CDT
Local time Tuesday, April 20, 2021 6:14 PM CDT
Flight conditions Visual Meteorological Conditions
Winds
Wind direction East (100°)
Wind speed 6 mph
Visibility 10 mi.
Sky condition
Ceiling 20,000 ft. broken clouds
Cloud layer few clouds 5,500 ft.
Cloud layer scattered clouds 10,000 ft.
Cloud layer broken clouds 20,000 ft.
Cloud layer overcast 25,000 ft.
Temperature 40°F
Dewpoint 20°F
Altimeter 30.05 in.Hg
Derived measurements
Relative humidity 44%
Wind chill 36°F
Density altitude -701 ft.
Sea-level pressure 30.06 in.Hg
Remarks
Automated weather observing station with precipitation discriminator.
METAR KORD 202251Z 10005KT 10SM FEW055 SCT100 BKN200 OVC250 04/M07 A3005 RMK AO2 SLP181 T00441067

InnerDrive.Weather 4.0.6770.0 Release CLR 4.0.30319.42000
Copyright ©2018 Inner Drive Technology. All rights reserved. Portions Copyright ©1986-2018 David Braverman.

Find weather

Site navigation


Skip Navigation Links

Place info

Page info

PayPal - The safer, easier way to pay online!

Return home.

Copyright ©2021 Inner Drive Technology. Purveyors of fine, hand-crafted computer software. Page printed 2021-04-20T23:14:04 UTC.